Portada
METAR-TAF:

METAR-TAF

Aeropuertos :

Taskent, Uzbekistán

Aeropuerto Internacional de Taskent

latitud: 41-16N, longitud: 069-16E, altitud: 489 m

Observación

El informe se hizo hace 15 minutos, a las 15:30 UTC
Viento 2 kt del noreste
Temperatura 5°C
Humedad 65%
Presión 1018 hPa
Visibilidad: 4000 m
humo

METAR: UTTT 231530Z 05002KT 4000 FU NSC 05/M01 Q1018 R08R/CLRD70 NOSIG

Hora: 20:45 (15:45 UTC)

Pronóstico

El informe se hizo hace 4 horas y 45 minutos, a las 11:00 UTC
Pronóstico válido del 23 a las 12 UTC al 24 a las 12 UTC
Viento 10 kt del este
Visibilidad: 7000 m
Temporalmente
del 23 a las 18 UTC al 24 a las 03 UTC
Visibilidad: 2000 m
neblina, humo

TAF: UTTT 231100Z 2312/2412 08010KT 7000 NSC TEMPO 2318/2403 2000 BR FU

Observaciones y pronósticos meteorológicos de más de 4000 aeropuertos (mensajes METAR y TAF).

Los puntos amarillos y rojos representan las estaciones disponibles.

Ponga el ratón en el punto deseado para ver el nombre de la estación.

Haga clic para ver las observaciones y los pronósticos meteorológicos.

Para cambiar el mapa : haga clic en los botones verdes con una cruz de color negro para hacer un zoom, en el botón verde con un guión para alejar o en las flechas verdes para mapas adyacentes.


METAR-TAF: